Time;durP1;ratioP1;P1;durP2;ratioP2;P2;SDS_P1;SDS_P2;PMS_P1;PMS_P2;Temp;Humidity;BMP_temperature;BMP_pressure;BME280_temperature;BME280_humidity;BME280_pressure;Samples;Min_cycle;Max_cycle;Signal;HPM_P1;HPM_P2
2023/08/16 00:04:43;;;;;;;;;;;23.00;90.90;;;22.00;80.23;100349.13;9764090;29;96802;-88
2023/08/16 00:09:50;;;;;;;;;;;22.90;91.50;;;21.87;81.01;100347.50;9771731;29;96701;-88
2023/08/16 00:14:53;;;;;;;;;;;22.80;91.50;;;21.78;81.57;100346.25;9781087;29;96697;-89
2023/08/16 00:19:57;;;;;;;;;;;22.70;91.80;;;21.66;82.54;100341.91;9771370;29;96909;-89
2023/08/16 00:25:00;;;;;;;;;;;22.60;92.20;;;21.58;82.78;100351.19;9783556;29;96901;-88
2023/08/16 00:30:05;;;;;;;;;;;22.50;92.00;;;21.46;82.73;100351.19;9760602;29;96794;-87
2023/08/16 00:35:10;;;;;;;;;;;22.40;92.40;;;21.32;82.58;100349.81;9769643;29;96915;-87
2023/08/16 00:40:14;;;;;;;;;;;22.30;92.20;;;21.25;82.65;100343.66;9784352;29;96864;-88
2023/08/16 00:45:18;;;;;;;;;;;22.30;92.10;;;21.23;83.58;100345.75;9777329;29;96738;-87
2023/08/16 00:50:24;;;;;;;;;;;22.20;92.50;;;21.19;83.17;100350.00;9779693;29;96690;-87
2023/08/16 00:55:27;;;;;;;;;;;22.20;92.20;;;21.19;83.15;100348.13;9764444;29;96816;-88
2023/08/16 01:00:31;;;;;;;;;;;22.20;92.20;;;21.18;83.19;100337.56;9770897;29;97365;-88
2023/08/16 01:05:35;;;;;;;;;;;22.20;92.00;;;21.16;83.04;100323.44;9771186;29;98237;-88
2023/08/16 01:10:44;;;;;;;;;;;22.20;92.70;;;21.20;82.88;100325.44;9758777;29;97280;-88
2023/08/16 01:15:49;;;;;;;;;;;22.20;92.40;;;21.21;82.88;100323.56;9750562;29;96844;-88
2023/08/16 01:20:53;;;;;;;;;;;22.20;92.60;;;21.18;83.38;100307.84;9783036;29;96876;-88
2023/08/16 01:26:01;;;;;;;;;;;22.10;93.00;;;21.10;83.47;100322.50;9768444;29;96664;-88
2023/08/16 01:31:05;;;;;;;;;;;22.00;92.40;;;21.04;84.27;100318.03;9773327;29;97671;-88
2023/08/16 01:36:09;;;;;;;;;;;22.00;92.90;;;20.98;84.57;100325.19;9783480;29;97240;-87
2023/08/16 01:41:21;;;;;;;;;;;21.90;93.30;;;20.92;84.22;100328.81;9766158;29;98365;-88
2023/08/16 01:46:25;;;;;;;;;;;21.90;93.50;;;20.75;83.98;100319.72;9756209;29;96773;-88
2023/08/16 01:51:29;;;;;;;;;;;21.70;93.60;;;20.70;83.72;100314.22;9761830;29;97589;-87
2023/08/16 01:56:33;;;;;;;;;;;21.60;93.50;;;20.67;84.32;100315.50;9744086;29;97546;-88
2023/08/16 02:01:36;;;;;;;;;;;21.60;93.80;;;20.59;84.13;100323.94;9747108;29;97049;-87
2023/08/16 02:06:40;;;;;;;;;;;21.60;93.70;;;20.48;84.35;100306.66;9761039;29;96441;-88
2023/08/16 02:11:43;;;;;;;;;;;21.50;93.80;;;20.48;84.72;100305.81;9767127;29;98332;-88
2023/08/16 02:16:47;;;;;;;;;;;21.50;93.80;;;20.49;84.45;100307.47;9761710;29;96704;-88
2023/08/16 02:21:50;;;;;;;;;;;21.50;93.90;;;20.44;84.41;100294.63;9780795;29;96882;-88
2023/08/16 02:26:54;;;;;;;;;;;21.50;94.00;;;20.38;84.75;100286.63;9771672;29;97010;-88
2023/08/16 02:31:57;;;;;;;;;;;21.40;94.00;;;20.32;84.69;100289.19;9773164;29;96684;-88
2023/08/16 02:37:01;;;;;;;;;;;21.30;93.50;;;20.35;85.47;100289.81;9775866;29;96701;-88
2023/08/16 02:42:05;;;;;;;;;;;21.40;93.70;;;20.37;85.81;100301.19;9775458;29;96743;-88
2023/08/16 02:47:08;;;;;;;;;;;21.30;94.00;;;20.32;85.63;100296.47;9772617;29;96791;-88
2023/08/16 02:52:12;;;;;;;;;;;21.40;94.10;;;20.28;86.46;100298.81;9756360;29;96828;-87
2023/08/16 02:57:18;;;;;;;;;;;21.30;94.20;;;20.24;86.42;100304.88;9740437;29;96798;-88
2023/08/16 03:02:22;;;;;;;;;;;21.20;94.40;;;20.16;86.91;100299.81;9775251;29;96728;-88
2023/08/16 03:07:25;;;;;;;;;;;21.10;94.60;;;20.09;87.19;100290.97;9796752;29;96735;-88
2023/08/16 03:12:29;;;;;;;;;;;21.10;94.70;;;20.01;87.75;100286.72;9790763;29;96756;-87
2023/08/16 03:17:33;;;;;;;;;;;21.00;94.80;;;19.93;88.53;100289.75;9786322;29;96848;-86
2023/08/16 03:22:36;;;;;;;;;;;21.00;95.20;;;19.89;88.81;100296.63;9798943;29;98270;-88
2023/08/16 03:27:40;;;;;;;;;;;20.90;94.90;;;19.82;89.83;100304.81;9795543;29;96769;-88
2023/08/16 03:32:43;;;;;;;;;;;20.90;94.80;;;19.78;90.64;100317.09;9776457;29;96916;-89
2023/08/16 03:37:46;;;;;;;;;;;20.80;95.20;;;19.76;91.13;100321.88;9758606;29;96612;-88
2023/08/16 03:42:50;;;;;;;;;;;20.80;95.30;;;19.73;92.03;100319.63;9768643;29;96885;-88
2023/08/16 03:47:56;;;;;;;;;;;20.70;96.00;;;19.63;92.30;100324.72;9786402;29;96640;-88
2023/08/16 03:52:59;;;;;;;;;;;20.60;96.40;;;19.55;92.43;100349.22;9784265;29;97188;-88
2023/08/16 03:58:03;;;;;;;;;;;20.50;96.10;;;19.52;93.23;100343.25;9774195;29;96815;-87
2023/08/16 04:03:07;;;;;;;;;;;20.50;97.10;;;19.53;94.01;100342.19;9777442;29;96676;-88
2023/08/16 04:08:10;;;;;;;;;;;20.60;97.60;;;19.46;96.19;100338.75;9753865;29;96910;-88
2023/08/16 04:13:14;;;;;;;;;;;20.50;99.00;;;19.44;98.14;100343.56;9779600;29;96898;-88
2023/08/16 04:18:17;;;;;;;;;;;20.40;99.90;;;19.50;99.37;100349.94;9766849;29;97614;-88
2023/08/16 04:23:22;;;;;;;;;;;20.50;99.90;;;19.55;98.90;100358.13;9750476;29;96810;-88
2023/08/16 04:28:25;;;;;;;;;;;20.50;99.90;;;19.61;98.80;100356.47;9755767;29;96637;-88
2023/08/16 04:33:28;;;;;;;;;;;20.60;99.90;;;19.71;99.90;100348.69;9772006;29;96909;-87
2023/08/16 04:38:32;;;;;;;;;;;20.70;99.90;;;19.87;100.00;100342.72;9762208;29;96862;-88
2023/08/16 04:43:35;;;;;;;;;;;20.90;99.90;;;20.08;100.00;100343.28;9771222;29;96744;-88
2023/08/16 04:48:40;;;;;;;;;;;21.10;99.90;;;20.32;99.93;100353.13;9780624;29;97620;-88
2023/08/16 04:53:45;;;;;;;;;;;21.30;99.90;;;20.49;99.62;100346.06;9769407;29;96735;-87
2023/08/16 04:58:49;;;;;;;;;;;21.40;99.90;;;20.76;100.00;100359.22;9771772;29;96665;-87
2023/08/16 05:03:53;;;;;;;;;;;21.70;99.90;;;20.96;99.45;100354.31;9750664;29;99281;-88
2023/08/16 05:08:56;;;;;;;;;;;22.00;99.90;;;21.19;98.69;100360.81;9779291;29;96964;-88
2023/08/16 05:13:59;;;;;;;;;;;22.20;99.80;;;21.35;97.00;100352.03;9769489;29;99205;-88
2023/08/16 05:19:03;;;;;;;;;;;22.40;99.90;;;21.51;94.64;100343.22;9780978;29;96636;-89
2023/08/16 05:24:08;;;;;;;;;;;22.50;99.80;;;21.69;93.87;100327.91;9770706;29;97030;-88
2023/08/16 05:29:11;;;;;;;;;;;22.70;99.60;;;21.86;93.88;100336.94;9773314;29;96728;-88
2023/08/16 05:34:16;;;;;;;;;;;22.80;99.40;;;21.97;90.46;100336.09;9758771;29;98187;-90
2023/08/16 05:39:19;;;;;;;;;;;22.90;99.00;;;22.12;90.22;100349.13;9760627;29;97535;-90
2023/08/16 05:44:23;;;;;;;;;;;23.10;98.60;;;22.26;90.93;100352.41;9763051;29;96956;-91
2023/08/16 05:49:26;;;;;;;;;;;23.20;98.40;;;22.44;92.84;100363.03;9747346;29;96730;-90
2023/08/16 05:54:30;;;;;;;;;;;23.40;98.40;;;22.62;90.81;100364.72;9770140;29;98114;-91
2023/08/16 05:59:33;;;;;;;;;;;23.60;98.70;;;22.80;90.04;100360.97;9773754;29;96989;-89
2023/08/16 06:04:37;;;;;;;;;;;23.80;98.80;;;22.99;90.98;100358.88;9762606;29;96801;-90
2023/08/16 06:09:40;;;;;;;;;;;24.00;98.50;;;23.18;89.95;100357.56;9772939;29;96990;-90
2023/08/16 06:14:44;;;;;;;;;;;24.10;98.20;;;23.35;86.48;100361.09;9769689;29;97661;-89
2023/08/16 06:19:47;;;;;;;;;;;24.30;97.80;;;23.51;84.33;100356.72;9768960;29;99401;-89
2023/08/16 06:24:53;;;;;;;;;;;24.50;97.40;;;23.67;83.06;100366.72;9752201;29;96777;-89
2023/08/16 06:29:56;;;;;;;;;;;24.70;97.10;;;23.76;82.22;100359.81;9762438;29;96826;-89
2023/08/16 06:35:00;;;;;;;;;;;24.80;97.00;;;23.81;81.62;100363.66;9798436;29;97539;-89
2023/08/16 06:40:04;;;;;;;;;;;24.80;96.60;;;23.88;82.32;100361.59;9756196;29;97159;-89
2023/08/16 06:45:09;;;;;;;;;;;24.90;96.90;;;23.93;81.80;100353.50;9768738;29;96702;-89
2023/08/16 06:50:12;;;;;;;;;;;24.90;96.50;;;23.97;81.99;100343.78;9748855;29;98164;-89
2023/08/16 06:55:16;;;;;;;;;;;25.00;96.50;;;24.17;83.40;100349.47;9759950;29;96893;-89
2023/08/16 07:00:19;;;;;;;;;;;25.10;96.70;;;24.39;83.74;100345.94;9774948;29;98610;-89
2023/08/16 07:05:25;;;;;;;;;;;25.40;96.60;;;24.61;79.33;100356.75;9771198;29;96871;-89
2023/08/16 07:10:29;;;;;;;;;;;25.60;96.00;;;24.77;75.21;100367.53;9780653;29;97196;-90
2023/08/16 07:15:33;;;;;;;;;;;25.80;95.00;;;24.78;75.98;100357.47;9772159;29;96711;-88
2023/08/16 07:20:36;;;;;;;;;;;25.80;94.70;;;24.84;73.94;100359.16;9785764;29;96599;-88
2023/08/16 07:25:40;;;;;;;;;;;25.90;94.10;;;24.85;73.39;100354.53;9788666;29;96615;-89
2023/08/16 07:30:45;;;;;;;;;;;25.90;94.10;;;24.72;73.24;100363.94;9756152;29;96826;-89
2023/08/16 07:35:49;;;;;;;;;;;25.80;93.90;;;24.70;75.41;100372.31;9772570;29;97528;-89
2023/08/16 07:40:52;;;;;;;;;;;25.70;94.00;;;24.71;71.75;100359.56;9816505;29;97781;-89
2023/08/16 07:45:56;;;;;;;;;;;25.70;93.50;;;24.80;69.52;100350.69;9775033;29;96813;-89
2023/08/16 07:51:00;;;;;;;;;;;25.90;92.80;;;25.13;69.77;100362.44;9766331;29;96629;-89
2023/08/16 07:56:04;;;;;;;;;;;26.20;92.70;;;25.24;69.08;100366.84;9763209;29;97655;-89
2023/08/16 08:01:09;;;;;;;;;;;26.30;92.50;;;25.36;69.82;100372.91;9749560;29;97896;-89
2023/08/16 08:06:13;;;;;;;;;;;26.40;92.50;;;25.34;68.47;100369.63;9785241;29;96656;-89
2023/08/16 08:11:16;;;;;;;;;;;26.40;92.20;;;25.40;70.11;100367.78;9779976;29;96669;-89
2023/08/16 08:16:20;;;;;;;;;;;26.50;92.30;;;25.59;67.39;100377.16;9777271;29;98283;-89
2023/08/16 08:21:23;;;;;;;;;;;26.70;91.80;;;25.80;66.59;100378.13;9766456;29;96768;-89
2023/08/16 08:26:27;;;;;;;;;;;26.90;91.60;;;26.05;64.43;100390.22;9754717;29;96681;-89
2023/08/16 08:31:30;;;;;;;;;;;27.20;90.90;;;26.24;62.74;100387.84;9782392;29;97692;-88
2023/08/16 08:36:34;;;;;;;;;;;27.30;90.30;;;26.52;64.50;100381.16;9773667;29;98464;-89
2023/08/16 08:41:38;;;;;;;;;;;27.50;90.60;;;26.66;62.76;100388.53;9776934;29;96830;-89
2023/08/16 08:46:51;;;;;;;;;;;27.70;89.30;;;26.76;61.65;100382.28;9785226;29;96912;-89
2023/08/16 08:52:05;;;;;;;;;;;27.80;87.80;;;26.88;61.74;100393.75;9769527;29;96763;-89
2023/08/16 08:57:10;;;;;;;;;;;28.00;88.70;;;27.02;61.54;100379.59;9765979;29;99409;-89
2023/08/16 09:02:14;;;;;;;;;;;28.10;87.70;;;27.17;60.65;100388.63;9770802;29;96649;-90
2023/08/16 09:07:18;;;;;;;;;;;28.20;87.50;;;27.42;61.46;100382.31;9747948;29;97391;-89
2023/08/16 09:12:22;;;;;;;;;;;28.50;87.90;;;27.68;60.32;100380.34;9781529;29;98279;-89
2023/08/16 09:17:26;;;;;;;;;;;28.70;86.40;;;27.68;57.82;100387.72;9757270;29;98827;-89
2023/08/16 09:22:30;;;;;;;;;;;28.70;84.30;;;27.72;60.30;100391.56;9741471;29;96782;-89
2023/08/16 09:27:33;;;;;;;;;;;28.60;86.40;;;27.82;59.50;100390.72;9739780;29;98038;-90
2023/08/16 09:32:37;;;;;;;;;;;28.80;85.70;;;27.96;59.15;100395.31;9760557;29;97040;-90
2023/08/16 09:37:43;;;;;;;;;;;29.00;85.80;;;28.15;57.40;100386.50;9762569;29;96638;-90
2023/08/16 09:42:46;;;;;;;;;;;29.20;83.10;;;28.16;57.37;100383.50;9762768;29;96777;-90
2023/08/16 09:47:51;;;;;;;;;;;29.30;83.90;;;28.10;57.39;100381.88;9789753;29;96665;-89
2023/08/16 09:52:58;;;;;;;;;;;29.20;83.30;;;28.11;57.26;100383.50;9750847;29;96701;-88
2023/08/16 09:58:02;;;;;;;;;;;29.30;83.40;;;28.12;56.79;100378.88;9742996;29;96628;-89
2023/08/16 10:03:05;;;;;;;;;;;29.30;82.90;;;28.38;58.23;100368.69;9749231;29;96630;-90
2023/08/16 10:08:10;;;;;;;;;;;29.40;83.60;;;28.54;57.21;100370.19;9747447;29;96650;-90
2023/08/16 10:13:14;;;;;;;;;;;29.60;83.10;;;28.59;56.06;100372.91;9759898;29;97144;-91
2023/08/16 10:18:18;;;;;;;;;;;29.70;82.70;;;28.65;55.48;100365.50;9773520;29;96899;-90
2023/08/16 10:23:22;;;;;;;;;;;29.80;81.70;;;28.88;54.08;100369.44;9763368;29;96786;-91
2023/08/16 10:28:27;;;;;;;;;;;29.90;80.70;;;29.19;54.86;100370.81;9752206;29;96817;-90
2023/08/16 10:33:35;;;;;;;;;;;30.20;81.10;;;29.42;55.07;100380.19;9744031;29;96673;-90
2023/08/16 10:38:41;;;;;;;;;;;30.50;80.90;;;29.54;53.64;100374.38;9767265;29;96811;-91
2023/08/16 10:43:47;;;;;;;;;;;30.60;78.40;;;29.62;52.08;100381.94;9779211;29;96816;-90
2023/08/16 10:48:58;;;;;;;;;;;30.70;77.50;;;29.63;52.75;100374.53;9774672;29;96624;-90
2023/08/16 10:54:04;;;;;;;;;;;30.70;78.10;;;29.71;51.70;100382.13;9759271;29;98088;-89
2023/08/16 10:59:07;;;;;;;;;;;30.70;77.30;;;29.76;52.22;100373.88;9764379;29;96715;-91
2023/08/16 11:04:15;;;;;;;;;;;30.80;77.60;;;29.69;51.06;100360.53;9759164;29;96688;-90
2023/08/16 11:09:23;;;;;;;;;;;30.80;76.70;;;29.83;50.90;100361.44;9741374;29;98303;-90
2023/08/16 11:14:26;;;;;;;;;;;30.90;75.70;;;29.87;49.16;100356.22;9753521;29;97274;-89
2023/08/16 11:19:29;;;;;;;;;;;30.90;73.80;;;29.81;47.93;100358.19;9782102;29;96999;-89
2023/08/16 11:24:34;;;;;;;;;;;30.90;74.00;;;29.77;48.62;100367.28;9748199;29;96731;-88
2023/08/16 11:29:38;;;;;;;;;;;30.90;73.90;;;29.93;47.74;100362.41;9780529;29;97109;-88
2023/08/16 11:34:42;;;;;;;;;;;31.00;72.30;;;30.06;47.09;100356.25;9774433;29;97449;-88
2023/08/16 11:39:45;;;;;;;;;;;31.10;71.80;;;30.22;48.15;100359.59;9771942;29;96697;-89
2023/08/16 11:44:48;;;;;;;;;;;31.20;72.50;;;30.27;47.21;100354.06;9780046;29;96630;-88
2023/08/16 11:49:52;;;;;;;;;;;31.30;72.00;;;30.52;47.38;100350.94;9769361;29;96916;-89
2023/08/16 11:55:07;;;;;;;;;;;31.50;71.80;;;30.63;46.61;100346.94;9764016;29;98284;-89
2023/08/16 12:00:14;;;;;;;;;;;31.60;71.00;;;30.62;45.08;100342.56;9771909;29;98391;-88
2023/08/16 12:05:18;;;;;;;;;;;31.70;70.60;;;30.50;46.62;100334.00;9779170;29;96798;-88
2023/08/16 12:10:26;;;;;;;;;;;31.60;70.80;;;30.45;47.13;100325.84;9777015;29;98662;-88
2023/08/16 12:15:30;;;;;;;;;;;31.50;71.00;;;30.43;47.48;100317.09;9763995;29;96562;-90
2023/08/16 12:20:35;;;;;;;;;;;31.50;71.00;;;30.57;46.03;100315.22;9785834;29;96668;-89
2023/08/16 12:25:38;;;;;;;;;;;31.60;70.30;;;30.56;45.16;100313.59;9774827;29;96590;-89
2023/08/16 12:30:42;;;;;;;;;;;31.60;69.30;;;30.39;44.77;100311.38;9760782;29;96526;-89
2023/08/16 12:35:47;;;;;;;;;;;31.50;69.00;;;30.50;45.51;100314.78;9785838;29;96696;-89
2023/08/16 12:40:52;;;;;;;;;;;31.60;69.30;;;30.53;44.96;100303.25;9786629;29;96655;-90
2023/08/16 12:45:55;;;;;;;;;;;31.70;67.90;;;30.76;44.44;100301.50;9785690;29;96672;-89
2023/08/16 12:50:59;;;;;;;;;;;31.80;67.70;;;30.90;44.06;100301.56;9780862;29;96538;-89
2023/08/16 12:56:06;;;;;;;;;;;31.90;67.60;;;30.92;42.79;100302.06;9772505;29;96854;-89
2023/08/16 13:01:11;;;;;;;;;;;32.00;67.00;;;30.64;43.02;100290.97;9782581;29;98165;-89
2023/08/16 13:06:21;;;;;;;;;;;31.90;66.10;;;30.78;43.12;100296.56;9781196;29;96749;-90
2023/08/16 13:11:28;;;;;;;;;;;31.90;66.20;;;30.96;42.46;100292.13;9747512;29;97675;-90
2023/08/16 13:16:37;;;;;;;;;;;32.10;65.70;;;31.07;42.15;100281.81;9773430;29;96873;-89
2023/08/16 13:21:44;;;;;;;;;;;32.40;65.40;;;31.08;41.68;100289.72;9765569;29;96731;-89
2023/08/16 13:26:57;;;;;;;;;;;32.60;64.00;;;31.01;41.13;100278.34;9784502;29;96696;-89
2023/08/16 13:32:03;;;;;;;;;;;32.80;63.20;;;31.18;41.65;100273.03;9779241;29;96910;-89
2023/08/16 13:37:10;;;;;;;;;;;33.00;63.20;;;31.58;41.18;100259.66;9778137;29;97074;-88
2023/08/16 13:42:17;;;;;;;;;;;33.20;62.30;;;31.71;39.90;100250.59;9749686;29;98343;-89
2023/08/16 13:47:27;;;;;;;;;;;33.20;62.20;;;31.64;40.65;100252.94;9748500;29;96606;-89
2023/08/16 13:52:31;;;;;;;;;;;32.90;62.10;;;31.73;40.18;100257.72;9769023;29;96713;-90
2023/08/16 13:57:34;;;;;;;;;;;32.90;62.20;;;31.67;41.05;100260.59;9784533;29;97408;-90
2023/08/16 14:02:42;;;;;;;;;;;32.70;63.00;;;31.68;41.32;100253.16;9783859;29;97904;-90
2023/08/16 14:07:46;;;;;;;;;;;32.60;63.20;;;31.85;41.77;100247.06;9785365;29;96617;-90
2023/08/16 14:12:50;;;;;;;;;;;32.80;63.60;;;32.01;40.83;100251.06;9786593;29;98848;-89
2023/08/16 14:17:53;;;;;;;;;;;33.20;63.00;;;31.96;40.46;100240.19;9776858;29;96653;-90
2023/08/16 14:22:57;;;;;;;;;;;33.40;61.60;;;32.04;39.70;100236.72;9786024;29;97684;-90
2023/08/16 14:28:04;;;;;;;;;;;33.60;61.10;;;32.31;39.51;100235.00;9787775;29;96650;-89
2023/08/16 14:33:12;;;;;;;;;;;34.10;60.30;;;32.69;39.84;100229.94;9765907;29;98614;-89
2023/08/16 14:38:15;;;;;;;;;;;34.60;60.40;;;32.88;37.71;100235.25;9752896;29;98289;-91
2023/08/16 14:43:20;;;;;;;;;;;34.80;57.30;;;33.28;38.31;100242.38;9762305;29;97676;-89
2023/08/16 14:48:23;;;;;;;;;;;35.10;58.90;;;33.70;37.13;100237.34;9762303;29;96832;-88
2023/08/16 14:53:27;;;;;;;;;;;35.50;57.60;;;33.92;36.41;100241.13;9763119;29;98190;-89
2023/08/16 14:58:30;;;;;;;;;;;35.70;57.20;;;34.05;35.94;100232.69;9771069;29;98080;-88
2023/08/16 15:03:34;;;;;;;;;;;35.90;56.10;;;34.27;36.11;100220.69;9759088;29;97390;-92
2023/08/16 15:08:38;;;;;;;;;;;36.10;57.00;;;34.62;36.00;100228.97;9765164;29;99634;-92
2023/08/16 15:13:42;;;;;;;;;;;36.40;57.40;;;34.90;35.45;100225.78;9767835;29;98792;-90
2023/08/16 15:18:45;;;;;;;;;;;36.60;56.70;;;34.92;33.83;100218.00;9757240;29;97485;-92
2023/08/16 15:23:49;;;;;;;;;;;36.60;54.40;;;34.93;33.72;100214.13;9763487;29;98319;-91
2023/08/16 15:28:54;;;;;;;;;;;36.50;54.40;;;34.72;34.52;100225.03;9770672;29;96656;-91
2023/08/16 15:33:57;;;;;;;;;;;36.30;55.40;;;34.76;35.35;100217.72;9766101;29;97511;-91
2023/08/16 15:39:01;;;;;;;;;;;36.20;55.70;;;34.73;34.11;100208.16;9754037;29;99741;-91
2023/08/16 15:44:05;;;;;;;;;;;36.30;54.20;;;34.71;34.26;100207.66;9769505;29;96738;-93
2023/08/16 15:49:08;;;;;;;;;;;36.10;54.60;;;34.50;35.03;100210.31;9754287;29;98554;-91
2023/08/16 15:54:12;;;;;;;;;;;36.00;55.00;;;34.46;34.29;100208.53;9765418;29;98005;-93
2023/08/16 15:59:16;;;;;;;;;;;35.80;54.30;;;34.22;35.06;100193.28;9772771;29;96879;-91
2023/08/16 16:04:20;;;;;;;;;;;35.60;55.40;;;34.17;35.61;100195.41;9755794;29;96998;-92
2023/08/16 16:09:23;;;;;;;;;;;35.50;55.60;;;34.21;35.93;100199.94;9759001;29;96775;-93
2023/08/16 16:14:27;;;;;;;;;;;35.50;55.80;;;34.27;35.08;100192.31;9761917;29;96766;-92
2023/08/16 16:19:30;;;;;;;;;;;35.50;55.50;;;34.29;35.44;100196.34;9798070;29;96785;-86
2023/08/16 16:24:34;;;;;;;;;;;35.50;55.60;;;34.22;34.98;100196.03;9761832;29;97689;-87
2023/08/16 16:29:38;;;;;;;;;;;35.40;55.30;;;34.06;35.72;100189.41;9767035;29;97253;-87
2023/08/16 16:34:41;;;;;;;;;;;35.20;55.70;;;33.86;36.51;100188.09;9761071;29;96918;-87
2023/08/16 16:39:45;;;;;;;;;;;35.00;56.30;;;33.70;36.96;100192.44;9771328;29;96786;-87
2023/08/16 16:44:50;;;;;;;;;;;34.80;56.80;;;33.39;37.62;100193.34;9773586;29;98109;-87
2023/08/16 16:49:54;;;;;;;;;;;34.50;57.30;;;33.03;39.16;100199.06;9773323;29;98107;-87
2023/08/16 16:54:57;;;;;;;;;;;34.10;58.10;;;32.48;40.76;100200.19;9766409;29;98212;-87
2023/08/16 17:00:01;;;;;;;;;;;33.60;59.00;;;31.90;41.61;100206.50;9769540;29;96722;-87
2023/08/16 17:05:06;;;;;;;;;;;33.00;60.20;;;31.30;43.63;100217.66;9729412;29;98327;-87
2023/08/16 17:10:10;;;;;;;;;;;32.40;62.20;;;30.64;48.45;100216.94;9754394;29;98239;-88
2023/08/16 17:15:13;;;;;;;;;;;31.60;64.60;;;30.07;48.14;100213.44;9740918;29;98640;-86
2023/08/16 17:20:17;;;;;;;;;;;31.00;65.90;;;29.58;49.52;100222.91;9761284;29;98121;-86
2023/08/16 17:25:20;;;;;;;;;;;30.50;65.10;;;29.19;51.16;100235.94;9754655;29;96794;-85
2023/08/16 17:30:27;;;;;;;;;;;30.20;66.40;;;28.84;52.76;100234.34;9759205;29;97614;-86
2023/08/16 17:35:31;;;;;;;;;;;29.90;66.10;;;28.44;53.59;100237.16;9769084;29;98494;-85
2023/08/16 17:40:34;;;;;;;;;;;29.50;67.40;;;28.09;53.72;100227.28;9755122;29;98239;-86
2023/08/16 17:45:39;;;;;;;;;;;29.20;68.70;;;27.65;54.13;100208.94;9781424;29;96653;-85
2023/08/16 17:50:43;;;;;;;;;;;28.80;69.50;;;27.23;55.38;100225.75;9775362;29;98500;-86
2023/08/16 17:55:46;;;;;;;;;;;28.30;69.10;;;27.03;57.27;100291.22;9754582;29;98186;-87
2023/08/16 18:00:56;;;;;;;;;;;28.00;69.80;;;26.63;60.04;100396.44;9766365;29;98222;-86
2023/08/16 18:06:00;;;;;;;;;;;27.70;75.30;;;25.31;67.20;100389.22;9764241;29;97843;-83
2023/08/16 18:11:03;;;;;;;;;;;26.70;79.80;;;23.34;65.96;100383.84;9759306;29;96771;-84
2023/08/16 18:16:07;;;;;;;;;;;25.00;79.90;;;20.84;79.55;100429.09;9767816;29;97474;-86
2023/08/16 18:21:11;;;;;;;;;;;22.70;91.10;;;19.39;94.92;100410.75;9775713;29;98672;-96
2023/08/16 18:26:15;;;;;;;;;;;20.90;91.80;;;18.97;100.00;100406.94;9747434;29;97901;-95
2023/08/16 18:31:19;;;;;;;;;;;20.30;94.70;;;18.99;100.00;100431.78;9786869;29;97251;-92
2023/08/16 18:36:22;;;;;;;;;;;20.10;97.20;;;19.10;100.00;100455.31;9764264;29;97939;-90
2023/08/16 18:41:26;;;;;;;;;;;20.10;99.90;;;19.14;100.00;100461.13;9762515;29;97435;-91
2023/08/16 18:46:30;;;;;;;;;;;20.20;99.90;;;19.20;100.00;100468.31;9779009;29;98522;-88
2023/08/16 18:51:33;;;;;;;;;;;20.20;99.90;;;19.15;100.00;100454.69;9764078;29;96823;-91
2023/08/16 18:56:37;;;;;;;;;;;20.20;99.90;;;19.22;100.00;100455.44;9757637;29;96847;-90
2023/08/16 19:01:40;;;;;;;;;;;20.20;99.90;;;19.40;100.00;100479.78;9755265;29;96858;-92
2023/08/16 19:06:44;;;;;;;;;;;20.40;99.90;;;19.61;100.00;100489.41;9757658;29;98894;-94
2023/08/16 19:11:51;;;;;;;;;;;20.60;99.90;;;19.71;100.00;100443.88;9773027;29;97467;-96
2023/08/16 19:17:01;;;;;;;;;;;20.70;99.90;;;19.75;100.00;100437.00;9776167;29;96875;-96
2023/08/16 19:22:05;;;;;;;;;;;20.70;99.90;;;19.74;100.00;100419.19;9770479;29;98421;-93
2023/08/16 19:27:09;;;;;;;;;;;20.70;99.90;;;19.80;100.00;100422.84;9763631;29;96858;-91
2023/08/16 19:32:13;;;;;;;;;;;20.80;99.90;;;19.76;100.00;100417.06;9775925;29;97682;-89
2023/08/16 19:37:16;;;;;;;;;;;20.80;99.90;;;19.65;100.00;100403.50;9780123;29;98520;-89
2023/08/16 19:42:20;;;;;;;;;;;20.60;99.90;;;19.57;100.00;100403.75;9754612;29;98593;-90
2023/08/16 19:47:23;;;;;;;;;;;20.50;99.90;;;19.49;100.00;100405.69;9760017;29;97123;-89
2023/08/16 19:52:27;;;;;;;;;;;20.40;99.90;;;19.42;100.00;100415.69;9765292;29;98330;-89
2023/08/16 19:57:30;;;;;;;;;;;20.40;99.90;;;19.39;100.00;100412.63;9751127;29;96784;-88
2023/08/16 20:02:34;;;;;;;;;;;20.30;99.90;;;19.37;100.00;100406.63;9766646;29;98445;-87
2023/08/16 20:07:37;;;;;;;;;;;20.30;99.90;;;19.40;100.00;100400.81;9766361;29;98379;-87
2023/08/16 20:12:41;;;;;;;;;;;20.30;99.90;;;19.38;100.00;100389.44;9752729;29;96802;-87
2023/08/16 20:17:44;;;;;;;;;;;20.40;99.90;;;19.42;100.00;100380.66;9770363;29;96787;-87
2023/08/16 20:22:48;;;;;;;;;;;20.40;99.90;;;19.45;100.00;100407.19;9770273;29;96786;-87
2023/08/16 20:27:51;;;;;;;;;;;20.50;99.90;;;19.52;100.00;100399.84;9738611;29;98243;-87
2023/08/16 20:32:55;;;;;;;;;;;20.50;99.90;;;19.60;100.00;100406.03;9767232;29;98320;-88
2023/08/16 20:38:04;;;;;;;;;;;20.60;99.90;;;19.70;100.00;100403.66;9750688;29;97552;-87
2023/08/16 20:43:18;;;;;;;;;;;20.70;99.90;;;19.74;100.00;100421.88;9760434;29;96969;-87
2023/08/16 20:48:22;;;;;;;;;;;20.80;99.90;;;19.79;100.00;100431.97;9769503;29;96827;-90
2023/08/16 20:53:26;;;;;;;;;;;20.80;99.90;;;19.82;100.00;100419.94;9772729;29;98198;-90
2023/08/16 20:58:29;;;;;;;;;;;20.90;99.90;;;19.82;100.00;100409.97;9745776;29;96853;-91
2023/08/16 21:03:33;;;;;;;;;;;20.90;99.90;;;19.89;100.00;100389.16;9731161;29;97256;-90
2023/08/16 21:08:37;;;;;;;;;;;20.90;99.90;;;19.95;100.00;100415.22;9769715;29;97931;-90
2023/08/16 21:13:41;;;;;;;;;;;21.00;99.90;;;20.00;100.00;100422.66;9768789;29;96853;-90
2023/08/16 21:18:44;;;;;;;;;;;21.00;99.90;;;20.04;100.00;100424.69;9749542;29;96857;-89
2023/08/16 21:23:48;;;;;;;;;;;21.10;99.90;;;20.12;100.00;100417.31;9745203;29;97809;-89
2023/08/16 21:28:52;;;;;;;;;;;21.10;99.90;;;20.08;100.00;100416.13;9750753;29;99017;-89
2023/08/16 21:33:56;;;;;;;;;;;21.10;99.90;;;20.03;100.00;100414.94;9762169;29;97030;-89
2023/08/16 21:39:01;;;;;;;;;;;21.10;99.90;;;20.03;100.00;100403.28;9765865;29;98095;-90
2023/08/16 21:44:04;;;;;;;;;;;21.10;99.90;;;20.03;100.00;100412.25;9756853;29;97926;-89
2023/08/16 21:49:08;;;;;;;;;;;21.10;99.90;;;20.02;100.00;100415.13;9769111;29;97067;-90
2023/08/16 21:54:11;;;;;;;;;;;21.10;99.90;;;20.01;100.00;100406.22;9766756;29;97094;-89
2023/08/16 21:59:17;;;;;;;;;;;21.00;99.90;;;19.93;100.00;100406.53;9789976;29;98319;-90
2023/08/16 22:04:20;;;;;;;;;;;21.00;99.90;;;19.98;100.00;100425.56;9753479;29;98243;-89
2023/08/16 22:09:24;;;;;;;;;;;21.00;99.90;;;19.95;100.00;100409.00;9775762;29;98549;-91
2023/08/16 22:14:27;;;;;;;;;;;21.00;99.90;;;19.96;100.00;100422.25;9791271;29;97723;-91
2023/08/16 22:19:31;;;;;;;;;;;21.00;99.90;;;19.97;100.00;100415.84;9802319;29;98651;-89
2023/08/16 22:24:34;;;;;;;;;;;21.00;99.90;;;19.89;100.00;100405.31;9788892;29;96684;-89
2023/08/16 22:29:38;;;;;;;;;;;21.00;99.90;;;19.84;100.00;100396.25;9784105;29;96889;-89
2023/08/16 22:34:41;;;;;;;;;;;20.90;99.90;;;19.85;100.00;100401.44;9778970;29;97169;-90
2023/08/16 22:39:44;;;;;;;;;;;20.90;99.90;;;19.80;100.00;100395.91;9764890;29;96754;-89
2023/08/16 22:44:48;;;;;;;;;;;20.90;99.90;;;19.77;100.00;100397.16;9781861;29;96711;-90
2023/08/16 22:49:51;;;;;;;;;;;20.80;99.90;;;19.71;100.00;100375.66;9765644;29;97340;-90
2023/08/16 22:54:55;;;;;;;;;;;20.80;99.90;;;19.73;100.00;100379.78;9773583;29;96734;-89
2023/08/16 22:59:58;;;;;;;;;;;20.80;99.90;;;19.75;100.00;100368.78;9768640;29;96543;-90